Time;durP1;ratioP1;P1;durP2;ratioP2;P2;SDS_P1;SDS_P2;PMS_P1;PMS_P2;Temp;Humidity;BMP_temperature;BMP_pressure;BME280_temperature;BME280_humidity;BME280_pressure;Samples;Min_cycle;Max_cycle;Signal;HPM_P1;HPM_P2
2023/07/24 00:01:42;;;;;;;2.45;2.25;;;;;;;;;;5053111;28;20222;-82
2023/07/24 00:04:09;;;;;;;2.58;2.35;;;;;;;;;;5052683;28;20328;-83
2023/07/24 00:06:36;;;;;;;3.40;2.72;;;;;;;;;;5053422;28;20652;-83
2023/07/24 00:09:03;;;;;;;2.60;2.40;;;;;;;;;;5054069;28;20233;-84
2023/07/24 00:11:30;;;;;;;3.30;3.00;;;;;;;;;;5053918;28;20925;-83
2023/07/24 00:13:57;;;;;;;3.65;2.40;;;;;;;;;;5053617;28;20234;-83
2023/07/24 00:16:26;;;;;;;3.08;2.28;;;;;;;;;;5053820;28;20264;-84
2023/07/24 00:18:53;;;;;;;4.50;2.60;;;;;;;;;;5053563;28;20225;-84
2023/07/24 00:21:20;;;;;;;3.67;2.45;;;;;;;;;;5053821;28;20230;-83
2023/07/24 00:23:47;;;;;;;3.17;2.88;;;;;;;;;;5053390;28;20765;-83
2023/07/24 00:26:14;;;;;;;3.38;2.08;;;;;;;;;;5053997;28;20213;-83
2023/07/24 00:28:41;;;;;;;9.45;2.33;;;;;;;;;;5053455;28;20237;-83
2023/07/24 00:31:08;;;;;;;2.50;2.30;;;;;;;;;;5053828;28;20218;-83
2023/07/24 00:33:37;;;;;;;3.05;2.50;;;;;;;;;;5052442;28;20257;-83
2023/07/24 00:36:04;;;;;;;5.35;2.38;;;;;;;;;;5053850;28;20612;-83
2023/07/24 00:38:31;;;;;;;2.20;2.00;;;;;;;;;;5053517;28;20230;-83
2023/07/24 00:40:58;;;;;;;3.08;2.50;;;;;;;;;;5053033;28;20704;-83
2023/07/24 00:43:25;;;;;;;3.08;2.58;;;;;;;;;;5052943;28;20607;-83
2023/07/24 00:45:52;;;;;;;3.08;2.78;;;;;;;;;;5053882;28;20590;-83
2023/07/24 00:48:19;;;;;;;3.65;2.65;;;;;;;;;;5052750;28;20583;-83
2023/07/24 00:50:48;;;;;;;2.75;2.45;;;;;;;;;;5053743;28;20730;-83
2023/07/24 00:53:15;;;;;;;3.03;2.33;;;;;;;;;;5053410;28;20238;-83
2023/07/24 00:55:43;;;;;;;3.70;2.80;;;;;;;;;;5053885;28;20213;-83
2023/07/24 00:58:12;;;;;;;3.50;2.78;;;;;;;;;;5053251;28;20590;-82
2023/07/24 01:00:39;;;;;;;3.63;2.30;;;;;;;;;;5044638;28;20214;-82
2023/07/24 01:03:06;;;;;;;3.33;2.75;;;;;;;;;;5051472;28;20222;-83
2023/07/24 01:05:33;;;;;;;3.28;2.60;;;;;;;;;;5049434;28;20217;-83
2023/07/24 01:08:02;;;;;;;4.05;2.72;;;;;;;;;;5053062;28;20258;-83
2023/07/24 01:10:32;;;;;;;4.95;2.50;;;;;;;;;;5053594;28;20213;-83
2023/07/24 01:13:00;;;;;;;2.92;2.47;;;;;;;;;;5053034;28;20225;-84
2023/07/24 01:15:31;;;;;;;2.72;2.50;;;;;;;;;;5053635;28;20252;-83
2023/07/24 01:18:00;;;;;;;2.33;2.10;;;;;;;;;;5053150;28;20229;-84
2023/07/24 01:20:28;;;;;;;3.40;2.75;;;;;;;;;;5053474;28;20206;-83
2023/07/24 01:23:04;;;;;;;3.70;2.50;;;;;;;;;;5052832;28;20222;-83
2023/07/24 01:25:36;;;;;;;3.63;2.78;;;;;;;;;;5053516;28;20596;-83
2023/07/24 01:28:08;;;;;;;3.70;2.92;;;;;;;;;;5053118;28;20237;-83
2023/07/24 01:30:35;;;;;;;3.13;2.42;;;;;;;;;;5053131;28;20301;-83
2023/07/24 01:33:02;;;;;;;3.47;2.75;;;;;;;;;;5052622;28;20226;-83
2023/07/24 01:35:29;;;;;;;3.17;2.70;;;;;;;;;;5053036;28;20205;-83
2023/07/24 01:37:57;;;;;;;5.95;2.60;;;;;;;;;;5052792;28;20225;-83
2023/07/24 01:40:24;;;;;;;4.57;2.70;;;;;;;;;;5053359;28;20209;-83
2023/07/24 01:42:52;;;;;;;4.15;2.50;;;;;;;;;;5052913;28;20609;-83
2023/07/24 01:45:20;;;;;;;3.33;2.97;;;;;;;;;;5053348;28;20546;-83
2023/07/24 01:47:47;;;;;;;3.05;2.75;;;;;;;;;;5052655;28;20718;-83
2023/07/24 01:50:14;;;;;;;2.92;2.50;;;;;;;;;;5052697;28;20676;-83
2023/07/24 01:52:41;;;;;;;2.95;2.40;;;;;;;;;;5053017;28;20683;-83
2023/07/24 01:55:09;;;;;;;3.13;2.83;;;;;;;;;;5056459;28;20236;-83
2023/07/24 01:57:36;;;;;;;2.85;2.65;;;;;;;;;;5056368;28;20234;-83
2023/07/24 02:00:03;;;;;;;2.80;2.60;;;;;;;;;;5056946;28;20771;-83
2023/07/24 02:02:32;;;;;;;2.97;2.60;;;;;;;;;;5055828;28;20237;-83
2023/07/24 02:04:59;;;;;;;3.83;2.80;;;;;;;;;;5056648;28;20206;-83
2023/07/24 02:07:26;;;;;;;3.85;2.78;;;;;;;;;;5056379;28;20719;-83
2023/07/24 02:09:53;;;;;;;2.95;2.70;;;;;;;;;;5056253;28;20203;-83
2023/07/24 02:12:20;;;;;;;3.90;3.08;;;;;;;;;;5054991;28;20230;-82
2023/07/24 02:14:49;;;;;;;2.85;2.50;;;;;;;;;;5055009;28;20202;-83
2023/07/24 02:17:16;;;;;;;3.75;2.67;;;;;;;;;;5055069;28;20253;-83
2023/07/24 02:19:45;;;;;;;3.13;2.83;;;;;;;;;;5056613;28;20210;-83
2023/07/24 02:22:12;;;;;;;4.15;2.90;;;;;;;;;;5055842;28;20233;-83
2023/07/24 02:24:39;;;;;;;3.67;2.88;;;;;;;;;;5056008;28;20209;-84
2023/07/24 02:27:06;;;;;;;4.30;3.05;;;;;;;;;;5055834;28;20205;-84
2023/07/24 02:29:34;;;;;;;2.78;2.58;;;;;;;;;;5056409;28;20206;-84
2023/07/24 02:32:02;;;;;;;3.00;2.70;;;;;;;;;;5055680;28;20257;-84
2023/07/24 02:34:29;;;;;;;4.00;3.03;;;;;;;;;;5055573;28;20229;-84
2023/07/24 02:36:58;;;;;;;6.65;2.95;;;;;;;;;;5055338;28;20202;-84
2023/07/24 02:39:25;;;;;;;6.32;3.38;;;;;;;;;;5056154;28;20209;-84
2023/07/24 02:41:52;;;;;;;3.13;2.80;;;;;;;;;;5055082;28;20222;-84
2023/07/24 02:44:19;;;;;;;7.38;3.13;;;;;;;;;;5055734;28;20680;-84
2023/07/24 02:46:46;;;;;;;7.57;3.50;;;;;;;;;;5055859;28;20668;-84
2023/07/24 02:49:13;;;;;;;3.78;3.10;;;;;;;;;;5055736;28;20226;-84
2023/07/24 02:51:40;;;;;;;4.25;3.25;;;;;;;;;;5055581;28;20566;-84
2023/07/24 02:54:08;;;;;;;3.45;3.00;;;;;;;;;;5055520;28;20229;-84
2023/07/24 02:56:35;;;;;;;4.22;3.22;;;;;;;;;;5055769;28;20213;-84
2023/07/24 02:59:02;;;;;;;3.08;2.78;;;;;;;;;;5055374;28;20251;-84
2023/07/24 03:01:29;;;;;;;4.63;3.15;;;;;;;;;;5055375;28;20253;-84
2023/07/24 03:03:57;;;;;;;3.50;3.05;;;;;;;;;;5055095;28;20217;-83
2023/07/24 03:06:24;;;;;;;4.68;3.25;;;;;;;;;;5054944;28;20201;-83
2023/07/24 03:08:51;;;;;;;4.85;3.35;;;;;;;;;;5055091;28;20225;-83
2023/07/24 03:11:19;;;;;;;3.70;3.17;;;;;;;;;;5047370;28;20218;-83
2023/07/24 03:13:46;;;;;;;4.55;3.17;;;;;;;;;;5051155;28;20234;-83
2023/07/24 03:16:13;;;;;;;6.50;3.30;;;;;;;;;;5054290;28;20221;-84
2023/07/24 03:18:40;;;;;;;4.38;3.20;;;;;;;;;;5054109;28;20230;-84
2023/07/24 03:21:07;;;;;;;5.00;3.40;;;;;;;;;;5055302;28;20622;-84
2023/07/24 03:23:35;;;;;;;4.53;3.22;;;;;;;;;;5054803;28;20222;-83
2023/07/24 03:26:02;;;;;;;4.40;3.22;;;;;;;;;;5055548;28;20222;-83
2023/07/24 03:28:30;;;;;;;4.88;3.20;;;;;;;;;;5054682;28;20229;-84
2023/07/24 03:30:57;;;;;;;5.40;3.53;;;;;;;;;;5055277;28;20229;-84
2023/07/24 03:33:24;;;;;;;4.30;3.20;;;;;;;;;;5054656;28;20233;-83
2023/07/24 03:35:51;;;;;;;3.33;3.00;;;;;;;;;;5055350;28;20206;-84
2023/07/24 03:38:18;;;;;;;3.90;3.38;;;;;;;;;;5055201;28;20312;-83
2023/07/24 03:40:47;;;;;;;3.67;3.17;;;;;;;;;;5054960;28;20212;-83
2023/07/24 03:43:14;;;;;;;5.07;3.23;;;;;;;;;;5054926;28;20313;-82
2023/07/24 03:45:43;;;;;;;4.17;2.87;;;;;;;;;;5055062;28;20222;-82
2023/07/24 03:48:10;;;;;;;5.05;3.50;;;;;;;;;;5054523;28;20321;-82
2023/07/24 03:50:37;;;;;;;4.30;3.03;;;;;;;;;;5054818;28;20210;-81
2023/07/24 03:53:04;;;;;;;4.70;3.60;;;;;;;;;;5054276;28;20238;-83
2023/07/24 03:55:31;;;;;;;3.47;2.83;;;;;;;;;;5054853;28;20210;-83
2023/07/24 03:57:59;;;;;;;4.47;2.83;;;;;;;;;;5053720;28;20260;-82
2023/07/24 04:00:26;;;;;;;8.63;3.70;;;;;;;;;;5054023;28;20214;-82
2023/07/24 04:02:54;;;;;;;5.38;3.50;;;;;;;;;;5053226;28;20241;-82
2023/07/24 04:05:21;;;;;;;9.65;3.42;;;;;;;;;;5053478;28;20214;-82
2023/07/24 04:07:48;;;;;;;7.10;3.50;;;;;;;;;;5033058;28;20242;-83
2023/07/24 04:10:15;;;;;;;7.20;3.05;;;;;;;;;;5045300;28;20218;-83
2023/07/24 04:12:42;;;;;;;4.15;3.28;;;;;;;;;;5052354;28;20238;-82
2023/07/24 04:15:10;;;;;;;4.95;3.60;;;;;;;;;;5052659;28;20237;-80
2023/07/24 04:17:38;;;;;;;5.97;4.60;;;;;;;;;;5051978;28;20708;-83
2023/07/24 04:20:08;;;;;;;7.07;3.67;;;;;;;;;;5053714;28;20237;-82
2023/07/24 04:22:35;;;;;;;5.95;3.50;;;;;;;;;;5051737;28;20238;-81
2023/07/24 04:25:02;;;;;;;6.77;3.90;;;;;;;;;;5052714;28;20205;-81
2023/07/24 04:27:29;;;;;;;4.20;3.58;;;;;;;;;;5052079;28;20229;-82
2023/07/24 04:29:56;;;;;;;5.22;3.72;;;;;;;;;;5052706;28;20237;-82
2023/07/24 04:32:23;;;;;;;4.13;3.20;;;;;;;;;;5052140;28;20237;-82
2023/07/24 04:34:50;;;;;;;5.83;3.67;;;;;;;;;;5047892;28;20228;-82
2023/07/24 04:37:18;;;;;;;4.45;3.55;;;;;;;;;;5051945;28;20234;-82
2023/07/24 04:39:45;;;;;;;4.53;3.67;;;;;;;;;;5052458;28;20685;-82
2023/07/24 04:42:13;;;;;;;6.10;3.80;;;;;;;;;;5052399;28;20234;-84
2023/07/24 04:44:40;;;;;;;5.37;3.47;;;;;;;;;;5053422;28;20202;-82
2023/07/24 04:47:07;;;;;;;8.47;3.83;;;;;;;;;;5051765;28;20237;-82
2023/07/24 04:49:34;;;;;;;4.77;3.70;;;;;;;;;;5052332;28;20232;-82
2023/07/24 04:52:01;;;;;;;6.60;4.10;;;;;;;;;;5051935;28;20576;-81
2023/07/24 04:54:30;;;;;;;9.23;3.57;;;;;;;;;;5053570;28;20647;-83
2023/07/24 04:56:57;;;;;;;5.82;3.80;;;;;;;;;;5047775;28;20201;-83
2023/07/24 04:59:24;;;;;;;4.32;3.92;;;;;;;;;;5052136;28;20217;-83
2023/07/24 05:01:51;;;;;;;5.55;3.50;;;;;;;;;;5052013;28;20724;-83
2023/07/24 05:04:18;;;;;;;6.63;4.50;;;;;;;;;;5052467;28;20292;-83
2023/07/24 05:06:45;;;;;;;5.60;3.83;;;;;;;;;;5052076;28;20206;-82
2023/07/24 05:09:12;;;;;;;7.15;4.03;;;;;;;;;;5052389;28;20226;-83
2023/07/24 05:11:41;;;;;;;4.38;3.28;;;;;;;;;;5052977;28;20240;-83
2023/07/24 05:14:08;;;;;;;5.97;3.90;;;;;;;;;;5047611;28;20309;-83
2023/07/24 05:16:36;;;;;;;6.47;4.35;;;;;;;;;;5051845;28;20228;-83
2023/07/24 05:19:03;;;;;;;4.47;3.63;;;;;;;;;;5050715;28;20241;-83
2023/07/24 05:21:30;;;;;;;4.88;3.85;;;;;;;;;;5051467;28;20222;-83
2023/07/24 05:23:57;;;;;;;5.82;3.70;;;;;;;;;;5052343;28;20234;-83
2023/07/24 05:26:24;;;;;;;5.13;3.80;;;;;;;;;;5052321;28;20640;-83
2023/07/24 05:28:53;;;;;;;6.80;4.15;;;;;;;;;;5054592;28;20284;-83
2023/07/24 05:31:20;;;;;;;5.80;4.28;;;;;;;;;;5056336;28;20259;-82
2023/07/24 05:33:47;;;;;;;5.05;3.70;;;;;;;;;;5054602;28;21459;-83
2023/07/24 05:36:15;;;;;;;5.85;3.88;;;;;;;;;;5050273;28;20203;-83
2023/07/24 05:38:42;;;;;;;6.18;4.20;;;;;;;;;;5054776;28;20241;-83
2023/07/24 05:41:09;;;;;;;11.90;4.55;;;;;;;;;;5057040;28;20226;-84
2023/07/24 05:43:36;;;;;;;8.82;4.63;;;;;;;;;;5057064;28;20233;-84
2023/07/24 05:46:04;;;;;;;6.60;4.22;;;;;;;;;;5063539;28;20202;-83
2023/07/24 05:48:31;;;;;;;7.53;4.20;;;;;;;;;;5054977;28;20238;-83
2023/07/24 05:50:58;;;;;;;6.18;4.40;;;;;;;;;;5063799;28;20734;-83
2023/07/24 05:53:25;;;;;;;9.48;4.63;;;;;;;;;;5054941;28;20238;-82
2023/07/24 05:55:58;;;;;;;6.97;4.30;;;;;;;;;;5063620;28;20222;-83
2023/07/24 05:58:25;;;;;;;6.75;4.30;;;;;;;;;;5055461;28;20284;-83
2023/07/24 06:00:52;;;;;;;5.15;4.05;;;;;;;;;;5055832;28;20277;-82
2023/07/24 06:03:21;;;;;;;6.38;4.55;;;;;;;;;;5055733;28;20238;-83
2023/07/24 06:05:48;;;;;;;6.22;4.10;;;;;;;;;;5056616;28;20187;-82
2023/07/24 06:08:15;;;;;;;6.15;3.90;;;;;;;;;;5055294;28;20226;-83
2023/07/24 06:10:42;;;;;;;6.78;4.35;;;;;;;;;;5056154;28;20206;-83
2023/07/24 06:13:09;;;;;;;6.03;4.18;;;;;;;;;;5055612;28;20225;-83
2023/07/24 06:15:36;;;;;;;6.15;3.80;;;;;;;;;;5055465;28;20230;-82
2023/07/24 06:18:03;;;;;;;6.38;4.18;;;;;;;;;;5050552;28;20234;-82
2023/07/24 06:20:31;;;;;;;4.45;4.00;;;;;;;;;;5055014;28;20217;-82
2023/07/24 06:22:58;;;;;;;5.95;4.53;;;;;;;;;;5054806;28;20241;-83
2023/07/24 06:25:25;;;;;;;4.10;3.60;;;;;;;;;;5055173;28;20687;-82
2023/07/24 06:27:52;;;;;;;5.57;3.88;;;;;;;;;;5054618;28;20427;-83
2023/07/24 06:30:19;;;;;;;5.82;4.15;;;;;;;;;;5055892;28;20239;-82
2023/07/24 06:32:46;;;;;;;6.25;3.38;;;;;;;;;;5057158;28;20237;-83
2023/07/24 06:35:13;;;;;;;7.13;3.92;;;;;;;;;;5061040;28;20233;-83
2023/07/24 06:37:42;;;;;;;12.43;3.60;;;;;;;;;;5054847;28;20233;-83
2023/07/24 06:40:10;;;;;;;5.85;4.35;;;;;;;;;;5065532;28;20213;-83
2023/07/24 06:42:37;;;;;;;5.00;4.20;;;;;;;;;;5054813;28;20273;-83
2023/07/24 06:45:04;;;;;;;4.82;4.00;;;;;;;;;;5055240;28;20711;-83
2023/07/24 06:47:31;;;;;;;9.13;3.97;;;;;;;;;;5054874;28;20225;-83
2023/07/24 06:49:58;;;;;;;6.82;4.30;;;;;;;;;;5062651;28;20213;-83
2023/07/24 06:52:25;;;;;;;8.73;3.97;;;;;;;;;;5054627;28;20234;-83
2023/07/24 06:54:53;;;;;;;6.05;3.67;;;;;;;;;;5055212;28;20234;-82
2023/07/24 06:57:20;;;;;;;9.10;3.97;;;;;;;;;;5054522;28;20711;-83
2023/07/24 06:59:48;;;;;;;4.60;3.78;;;;;;;;;;5055033;28;20241;-83
2023/07/24 07:02:15;;;;;;;6.55;3.95;;;;;;;;;;5053735;28;20237;-82
2023/07/24 07:04:42;;;;;;;7.20;3.97;;;;;;;;;;5053823;28;20281;-83
2023/07/24 07:07:10;;;;;;;6.68;3.95;;;;;;;;;;5053913;28;20234;-83
2023/07/24 07:09:37;;;;;;;6.72;4.38;;;;;;;;;;5054797;28;20210;-82
2023/07/24 07:12:05;;;;;;;6.38;3.55;;;;;;;;;;5053709;28;20696;-83
2023/07/24 07:14:32;;;;;;;5.53;4.03;;;;;;;;;;5062381;28;20221;-83
2023/07/24 07:59:54;;;;;;;7.05;5.00;;;;;;;;;;4874078;29;20218;-88
2023/07/24 08:02:23;;;;;;;7.70;4.82;;;;;;;;;;4913733;29;20245;-88
2023/07/24 08:04:50;;;;;;;6.53;4.72;;;;;;;;;;4964776;28;20295;-88
2023/07/24 08:10:04;;;;;;;6.03;3.97;;;;;;;;;;5005731;28;20204;-87
2023/07/24 08:12:31;;;;;;;6.25;4.78;;;;;;;;;;5053545;28;20241;-85
2023/07/24 08:15:07;;;;;;;5.55;4.32;;;;;;;;;;5053419;28;20312;-87
2023/07/24 08:17:34;;;;;;;8.52;5.72;;;;;;;;;;5061498;28;20237;-87
2023/07/24 08:20:01;;;;;;;6.53;4.88;;;;;;;;;;5053856;28;20212;-86
2023/07/24 08:22:28;;;;;;;5.72;4.30;;;;;;;;;;5053577;28;20233;-87
2023/07/24 08:24:55;;;;;;;5.22;4.25;;;;;;;;;;5053766;28;20194;-86
2023/07/24 08:27:23;;;;;;;6.78;4.22;;;;;;;;;;5053264;28;20245;-86
2023/07/24 08:29:52;;;;;;;7.57;4.28;;;;;;;;;;5053062;28;20217;-87
2023/07/24 08:32:20;;;;;;;6.53;4.22;;;;;;;;;;5052695;28;20234;-86
2023/07/24 08:34:47;;;;;;;6.65;4.60;;;;;;;;;;5053179;28;20236;-89
2023/07/24 08:37:15;;;;;;;5.32;4.00;;;;;;;;;;5053384;28;20234;-89
2023/07/24 08:39:42;;;;;;;6.07;4.28;;;;;;;;;;5053519;28;20217;-88
2023/07/24 08:42:10;;;;;;;5.80;4.45;;;;;;;;;;5052458;28;20234;-88
2023/07/24 08:44:38;;;;;;;5.30;4.07;;;;;;;;;;5053734;28;20202;-87
2023/07/24 08:47:05;;;;;;;6.82;4.50;;;;;;;;;;5047935;28;20217;-88
2023/07/24 08:49:34;;;;;;;6.53;4.32;;;;;;;;;;5053718;28;20202;-88
2023/07/24 08:52:04;;;;;;;6.88;4.15;;;;;;;;;;5053434;28;20226;-88
2023/07/24 08:54:32;;;;;;;5.22;3.80;;;;;;;;;;5053302;28;20208;-87
2023/07/24 08:56:59;;;;;;;7.32;4.38;;;;;;;;;;5053110;28;20231;-89
2023/07/24 08:59:26;;;;;;;7.88;4.43;;;;;;;;;;5052794;28;20221;-89
2023/07/24 09:01:54;;;;;;;5.32;3.88;;;;;;;;;;5051103;28;20743;-89
2023/07/24 09:04:21;;;;;;;5.82;4.30;;;;;;;;;;5052721;28;20214;-88
2023/07/24 09:06:50;;;;;;;6.10;4.13;;;;;;;;;;5053548;28;20208;-88
2023/07/24 09:09:17;;;;;;;5.40;4.18;;;;;;;;;;5053472;28;20210;-88
2023/07/24 09:11:48;;;;;;;5.53;4.03;;;;;;;;;;5053514;28;20230;-87
2023/07/24 09:14:21;;;;;;;4.95;4.20;;;;;;;;;;5053530;28;20222;-89
2023/07/24 09:16:48;;;;;;;8.43;5.05;;;;;;;;;;5052433;28;20202;-88
2023/07/24 09:19:18;;;;;;;6.85;4.20;;;;;;;;;;5054032;28;20207;-88
2023/07/24 09:21:45;;;;;;;5.95;4.50;;;;;;;;;;5048317;28;20261;-88
2023/07/24 09:24:15;;;;;;;6.80;4.53;;;;;;;;;;5053364;28;20225;-87
2023/07/24 09:26:49;;;;;;;5.60;4.50;;;;;;;;;;5053198;28;20209;-87
2023/07/24 09:29:16;;;;;;;7.85;4.88;;;;;;;;;;5046545;28;20225;-88
2023/07/24 09:31:45;;;;;;;8.20;4.38;;;;;;;;;;5053239;28;20735;-87
2023/07/24 09:34:16;;;;;;;5.55;4.45;;;;;;;;;;5054059;28;20221;-89
2023/07/24 09:36:43;;;;;;;7.95;4.72;;;;;;;;;;5054245;28;20249;-88
2023/07/24 09:39:11;;;;;;;8.32;4.80;;;;;;;;;;5053205;28;20587;-88
2023/07/24 09:41:40;;;;;;;8.02;5.13;;;;;;;;;;5053393;28;20295;-90
2023/07/24 09:44:07;;;;;;;5.75;4.50;;;;;;;;;;5043415;28;20237;-88
2023/07/24 09:46:34;;;;;;;10.23;4.70;;;;;;;;;;5050716;28;20680;-88
2023/07/24 09:49:01;;;;;;;8.63;4.80;;;;;;;;;;5051958;28;20597;-87
2023/07/24 09:51:31;;;;;;;7.70;4.65;;;;;;;;;;5052565;28;20214;-87
2023/07/24 09:54:00;;;;;;;9.93;4.85;;;;;;;;;;5060879;28;20649;-88
2023/07/24 09:56:27;;;;;;;6.10;4.65;;;;;;;;;;5052847;28;20236;-88
2023/07/24 09:58:56;;;;;;;6.13;4.68;;;;;;;;;;5052217;28;20230;-88
2023/07/24 10:01:23;;;;;;;5.50;4.45;;;;;;;;;;5051733;28;20228;-87
2023/07/24 10:03:51;;;;;;;5.03;4.20;;;;;;;;;;5050477;28;20345;-89
2023/07/24 10:06:18;;;;;;;9.55;4.57;;;;;;;;;;5052172;28;20201;-87
2023/07/24 10:08:45;;;;;;;5.57;4.38;;;;;;;;;;5051169;28;20237;-86
2023/07/24 10:11:13;;;;;;;5.65;4.28;;;;;;;;;;5051471;28;20229;-85
2023/07/24 10:13:41;;;;;;;5.32;4.25;;;;;;;;;;5051336;28;20237;-86
2023/07/24 10:16:09;;;;;;;7.93;3.90;;;;;;;;;;5053789;28;20222;-85
2023/07/24 10:18:43;;;;;;;6.43;4.43;;;;;;;;;;5054500;28;20233;-85
2023/07/24 10:21:11;;;;;;;7.10;4.32;;;;;;;;;;5055394;28;20276;-86
2023/07/24 10:23:39;;;;;;;6.82;4.47;;;;;;;;;;5055045;28;20226;-86
2023/07/24 10:26:06;;;;;;;5.88;4.80;;;;;;;;;;5055034;28;20601;-86
2023/07/24 10:28:34;;;;;;;7.80;4.53;;;;;;;;;;5055453;28;20699;-87
2023/07/24 10:31:02;;;;;;;4.95;4.45;;;;;;;;;;5054427;28;20271;-86
2023/07/24 10:33:32;;;;;;;6.05;4.40;;;;;;;;;;5054788;28;20237;-87
2023/07/24 10:36:05;;;;;;;5.03;4.40;;;;;;;;;;5054577;28;20233;-87
2023/07/24 10:38:35;;;;;;;4.95;3.97;;;;;;;;;;5054605;28;20672;-86
2023/07/24 10:41:03;;;;;;;5.80;4.10;;;;;;;;;;5056315;28;20221;-86
2023/07/24 10:43:30;;;;;;;7.45;4.47;;;;;;;;;;5053865;28;20226;-86
2023/07/24 10:45:58;;;;;;;5.22;4.18;;;;;;;;;;5054228;28;20683;-86
2023/07/24 10:48:26;;;;;;;6.80;4.20;;;;;;;;;;5055378;28;20230;-86
2023/07/24 10:50:55;;;;;;;6.15;4.18;;;;;;;;;;5054321;28;20732;-86
2023/07/24 10:53:22;;;;;;;5.97;4.22;;;;;;;;;;5054865;28;20575;-86
2023/07/24 10:55:50;;;;;;;5.47;4.63;;;;;;;;;;5054585;28;20226;-87
2023/07/24 10:58:17;;;;;;;7.68;4.43;;;;;;;;;;5058778;28;20648;-86
2023/07/24 11:00:45;;;;;;;7.30;4.38;;;;;;;;;;5059663;28;20217;-86
2023/07/24 11:03:12;;;;;;;7.80;4.57;;;;;;;;;;5048835;28;20226;-86
2023/07/24 11:05:41;;;;;;;6.85;4.10;;;;;;;;;;5059687;28;20214;-84
2023/07/24 11:08:15;;;;;;;7.75;4.45;;;;;;;;;;5061186;28;20308;-87
2023/07/24 11:10:47;;;;;;;6.45;4.47;;;;;;;;;;5063174;28;20241;-89
2023/07/24 11:13:14;;;;;;;6.57;4.68;;;;;;;;;;5050680;28;20315;-88
2023/07/24 11:15:41;;;;;;;5.55;4.60;;;;;;;;;;5059191;28;20221;-88
2023/07/24 11:18:09;;;;;;;5.85;4.50;;;;;;;;;;5066021;28;20436;-88
2023/07/24 11:20:38;;;;;;;5.78;4.50;;;;;;;;;;5064987;28;20190;-88
2023/07/24 11:23:05;;;;;;;5.30;3.90;;;;;;;;;;5061474;28;20278;-88
2023/07/24 11:25:34;;;;;;;7.20;4.18;;;;;;;;;;5062574;28;20202;-87
2023/07/24 11:28:02;;;;;;;7.40;4.38;;;;;;;;;;5057608;28;20322;-87
2023/07/24 11:30:29;;;;;;;5.97;3.90;;;;;;;;;;5054262;28;20248;-85
2023/07/24 11:32:59;;;;;;;6.15;4.35;;;;;;;;;;5056366;28;20345;-86
2023/07/24 11:35:26;;;;;;;6.82;3.80;;;;;;;;;;5053994;28;20228;-89
2023/07/24 11:37:53;;;;;;;5.53;4.55;;;;;;;;;;5054527;28;20715;-89
2023/07/24 11:40:20;;;;;;;5.63;3.85;;;;;;;;;;5059493;28;20375;-88
2023/07/24 11:42:50;;;;;;;4.93;3.75;;;;;;;;;;5053829;28;20341;-87
2023/07/24 11:45:17;;;;;;;7.43;4.40;;;;;;;;;;5054496;28;20202;-88
2023/07/24 11:47:45;;;;;;;8.52;4.05;;;;;;;;;;5053576;28;20231;-89
2023/07/24 11:50:12;;;;;;;4.80;3.90;;;;;;;;;;5053305;28;20209;-89
2023/07/24 11:52:40;;;;;;;6.20;4.40;;;;;;;;;;5053555;28;20234;-86
2023/07/24 11:55:08;;;;;;;5.55;3.95;;;;;;;;;;5055633;28;20221;-88
2023/07/24 11:57:35;;;;;;;4.65;4.10;;;;;;;;;;5059002;28;20245;-88
2023/07/24 12:00:04;;;;;;;5.10;3.25;;;;;;;;;;5052405;28;20663;-88
2023/07/24 12:02:31;;;;;;;4.72;3.78;;;;;;;;;;5050664;28;20597;-87
2023/07/24 12:04:58;;;;;;;16.35;3.78;;;;;;;;;;5051754;28;20241;-87
2023/07/24 12:07:30;;;;;;;4.50;3.78;;;;;;;;;;5052752;28;20233;-90
2023/07/24 12:09:57;;;;;;;6.60;3.70;;;;;;;;;;5052293;28;20671;-87
2023/07/24 12:12:25;;;;;;;5.65;4.03;;;;;;;;;;5053539;28;20225;-87
2023/07/24 12:14:53;;;;;;;4.95;4.13;;;;;;;;;;5052720;28;20209;-88
2023/07/24 12:17:21;;;;;;;5.10;3.65;;;;;;;;;;5051863;28;20241;-88
2023/07/24 12:19:48;;;;;;;5.22;3.30;;;;;;;;;;5052923;28;20209;-88
2023/07/24 12:22:16;;;;;;;6.70;3.70;;;;;;;;;;5041788;28;20230;-87
2023/07/24 12:24:43;;;;;;;4.32;3.72;;;;;;;;;;5044813;28;20202;-87
2023/07/24 12:27:10;;;;;;;5.90;4.07;;;;;;;;;;5038593;28;20223;-88
2023/07/24 12:29:37;;;;;;;5.13;4.63;;;;;;;;;;5052129;28;20213;-88
2023/07/24 12:32:04;;;;;;;5.15;3.85;;;;;;;;;;5048536;28;20673;-87
2023/07/24 12:34:32;;;;;;;4.22;3.83;;;;;;;;;;5046590;28;20209;-87
2023/07/24 12:36:59;;;;;;;4.05;3.58;;;;;;;;;;5039492;28;20485;-89
2023/07/24 12:39:26;;;;;;;5.90;3.67;;;;;;;;;;5043344;28;20289;-86
2023/07/24 12:41:53;;;;;;;5.40;4.00;;;;;;;;;;5042664;28;20222;-87
2023/07/24 12:44:21;;;;;;;4.53;3.90;;;;;;;;;;5045043;28;20288;-86
2023/07/24 12:46:48;;;;;;;4.93;4.03;;;;;;;;;;5050240;28;20202;-87
2023/07/24 12:49:15;;;;;;;6.45;4.35;;;;;;;;;;5037806;28;20210;-87
2023/07/24 12:51:43;;;;;;;6.32;3.97;;;;;;;;;;5029780;28;20234;-87
2023/07/24 12:54:15;;;;;;;6.03;3.92;;;;;;;;;;5041447;28;20234;-87
2023/07/24 12:56:42;;;;;;;5.13;3.90;;;;;;;;;;5041441;28;20225;-85
2023/07/24 12:59:09;;;;;;;4.82;3.92;;;;;;;;;;5039193;28;20234;-85
2023/07/24 13:01:36;;;;;;;5.60;3.85;;;;;;;;;;5042947;28;20236;-86
2023/07/24 13:04:03;;;;;;;5.00;3.80;;;;;;;;;;5040931;28;20225;-84
2023/07/24 13:06:31;;;;;;;4.50;3.88;;;;;;;;;;5046544;28;20210;-85
2023/07/24 13:08:59;;;;;;;7.47;3.85;;;;;;;;;;5052021;28;20229;-87
2023/07/24 13:11:27;;;;;;;5.95;4.22;;;;;;;;;;5051143;28;20218;-86
2023/07/24 13:13:54;;;;;;;6.13;3.97;;;;;;;;;;5051771;28;20228;-84
2023/07/24 13:16:22;;;;;;;3.85;3.45;;;;;;;;;;5053443;28;20221;-84
2023/07/24 13:18:49;;;;;;;4.75;3.97;;;;;;;;;;5054498;28;20229;-84
2023/07/24 13:21:16;;;;;;;5.72;4.15;;;;;;;;;;5054330;28;20264;-85
2023/07/24 13:23:43;;;;;;;5.03;3.55;;;;;;;;;;5055297;28;20230;-86
2023/07/24 13:26:12;;;;;;;5.80;3.60;;;;;;;;;;5056752;28;20694;-87
2023/07/24 13:28:40;;;;;;;5.13;3.78;;;;;;;;;;5070818;28;20229;-87
2023/07/24 13:31:14;;;;;;;6.68;4.18;;;;;;;;;;5056201;28;20300;-86
2023/07/24 13:33:41;;;;;;;7.88;4.70;;;;;;;;;;5064613;28;20232;-87
2023/07/24 13:36:09;;;;;;;4.63;3.72;;;;;;;;;;5054416;28;20222;-85
2023/07/24 13:38:36;;;;;;;5.65;4.45;;;;;;;;;;5053569;28;20264;-83
2023/07/24 13:41:04;;;;;;;10.55;4.43;;;;;;;;;;5055936;28;20234;-85
2023/07/24 13:43:32;;;;;;;5.50;4.25;;;;;;;;;;5055536;28;20230;-83
2023/07/24 13:46:02;;;;;;;5.90;3.97;;;;;;;;;;5052321;28;20206;-81
2023/07/24 13:48:29;;;;;;;6.35;4.63;;;;;;;;;;5049672;28;20658;-83
2023/07/24 13:50:57;;;;;;;6.03;4.32;;;;;;;;;;5054178;28;20243;-82
2023/07/24 13:53:25;;;;;;;7.30;4.50;;;;;;;;;;5055371;28;20236;-82
2023/07/24 13:55:52;;;;;;;6.65;3.97;;;;;;;;;;5054226;28;20206;-82
2023/07/24 13:58:19;;;;;;;7.40;4.10;;;;;;;;;;5048961;28;20234;-81
2023/07/24 14:00:48;;;;;;;4.60;3.58;;;;;;;;;;5054533;28;20206;-82
2023/07/24 14:03:15;;;;;;;5.63;4.22;;;;;;;;;;5053226;28;20236;-82
2023/07/24 14:05:42;;;;;;;6.38;4.28;;;;;;;;;;5057179;28;20213;-83
2023/07/24 14:08:09;;;;;;;8.00;4.50;;;;;;;;;;5056656;28;20222;-82
2023/07/24 14:10:36;;;;;;;6.68;5.03;;;;;;;;;;5056517;28;20214;-82
2023/07/24 14:13:04;;;;;;;5.05;4.50;;;;;;;;;;5055302;28;20738;-83
2023/07/24 14:15:31;;;;;;;6.68;4.40;;;;;;;;;;5056765;28;20651;-81
2023/07/24 14:18:00;;;;;;;6.22;4.40;;;;;;;;;;5055068;28;20268;-83
2023/07/24 14:20:27;;;;;;;9.80;5.20;;;;;;;;;;5058789;28;20208;-85
2023/07/24 14:22:54;;;;;;;4.57;4.07;;;;;;;;;;5058506;28;20234;-86
2023/07/24 14:25:21;;;;;;;6.00;4.10;;;;;;;;;;5058021;28;20198;-85
2023/07/24 14:27:48;;;;;;;6.22;4.20;;;;;;;;;;5057978;28;20233;-86
2023/07/24 14:30:15;;;;;;;6.22;4.22;;;;;;;;;;5058140;28;20216;-85
2023/07/24 14:32:42;;;;;;;6.40;4.60;;;;;;;;;;5057881;28;20237;-85
2023/07/24 14:35:11;;;;;;;9.13;5.22;;;;;;;;;;5059118;28;20213;-86
2023/07/24 14:37:38;;;;;;;5.85;4.53;;;;;;;;;;5058022;28;20253;-88
2023/07/24 14:40:06;;;;;;;7.75;4.55;;;;;;;;;;5058476;28;20248;-86
2023/07/24 14:42:33;;;;;;;7.07;5.28;;;;;;;;;;5058092;28;20245;-88
2023/07/24 14:45:02;;;;;;;7.22;5.03;;;;;;;;;;5058547;28;20210;-85
2023/07/24 14:47:31;;;;;;;8.90;5.32;;;;;;;;;;5058202;28;20312;-85
2023/07/24 14:49:59;;;;;;;8.32;4.28;;;;;;;;;;5058286;28;20206;-85
2023/07/24 14:52:27;;;;;;;8.40;4.78;;;;;;;;;;5056717;28;21128;-86
2023/07/24 14:54:55;;;;;;;5.45;3.97;;;;;;;;;;5058678;28;20201;-86
2023/07/24 14:57:22;;;;;;;5.05;4.00;;;;;;;;;;5058901;28;20620;-85
2023/07/24 14:59:49;;;;;;;5.50;3.45;;;;;;;;;;5059161;28;20206;-86
2023/07/24 15:02:16;;;;;;;4.47;3.90;;;;;;;;;;5053598;28;20320;-86
2023/07/24 15:04:43;;;;;;;4.70;3.95;;;;;;;;;;5060482;28;20229;-87
2023/07/24 15:07:11;;;;;;;4.57;3.58;;;;;;;;;;5058790;28;20703;-86
2023/07/24 15:09:39;;;;;;;6.43;3.67;;;;;;;;;;5061179;28;20578;-86
2023/07/24 15:12:06;;;;;;;4.50;4.05;;;;;;;;;;5061751;28;20595;-88
2023/07/24 15:14:34;;;;;;;4.40;3.85;;;;;;;;;;5063082;28;20237;-87
2023/07/24 15:17:01;;;;;;;4.32;3.58;;;;;;;;;;5060088;28;20222;-86
2023/07/24 15:19:28;;;;;;;4.40;3.17;;;;;;;;;;5061226;28;20577;-85
2023/07/24 15:21:55;;;;;;;6.18;3.85;;;;;;;;;;5057926;28;20287;-86
2023/07/24 15:24:22;;;;;;;4.95;3.70;;;;;;;;;;5057975;28;20297;-85
2023/07/24 15:26:51;;;;;;;5.28;3.80;;;;;;;;;;5057175;28;20202;-84
2023/07/24 15:29:18;;;;;;;5.03;3.58;;;;;;;;;;5056794;28;20202;-85
2023/07/24 15:31:45;;;;;;;5.68;4.13;;;;;;;;;;5057746;28;20592;-84